| time (UTC) | temp C | wind direction | speed KPH | gust KPH | rain 1hr cm | rain 24hr cm | rain mn cm | humidity % | barometer mb |
| 20260506191816 | 15 | 266 | 3.2 | 8.0 | 0.00 | 0.36 | 0.36 | 81 | 1017.4 |
| 20260506191312 | 14 | 7 | 3.2 | 3.2 | 0.00 | 0.36 | 0.36 | 81 | 1017.0 |
| 20260506190809 | 14 | 59 | 1.6 | 9.7 | 0.00 | 0.36 | 0.36 | 81 | 1017.0 |
| 20260506190306 | 14 | 274 | 1.6 | 8.0 | 0.00 | 0.36 | 0.36 | 81 | 1017.0 |
| 20260506185803 | 14 | 199 | 1.6 | 8.0 | 0.00 | 0.36 | 0.36 | 82 | 1017.4 |
| 20260506185259 | 14 | 221 | 3.2 | 8.0 | 0.00 | 0.36 | 0.36 | 82 | 1017.0 |
| 20260506184757 | 13 | 40 | 3.2 | 4.8 | 0.00 | 0.36 | 0.36 | 83 | 1017.0 |
| 20260506184254 | 13 | 277 | 3.2 | 8.0 | 0.00 | 0.36 | 0.36 | 83 | 1017.4 |
| 20260506183751 | 13 | 194 | 1.6 | 3.2 | 0.00 | 0.36 | 0.36 | 83 | 1017.4 |
| 20260506183251 | 13 | 46 | 4.8 | 8.0 | 0.00 | 0.36 | 0.36 | 83 | 1017.4 |
| 20260506182749 | 13 | 284 | 0.0 | 8.0 | 0.00 | 0.36 | 0.36 | 84 | 1017.0 |
| 20260506182246 | 13 | 280 | 3.2 | 4.8 | 0.00 | 0.36 | 0.36 | 84 | 1017.0 |
| 20260506181744 | 13 | 4 | 1.6 | 11.3 | 0.00 | 0.36 | 0.36 | 85 | 1016.7 |
| 20260506181241 | 13 | 299 | 11.3 | 17.7 | 0.00 | 0.36 | 0.36 | 84 | 1016.4 |
| 20260506180738 | 13 | 327 | 4.8 | 11.3 | 0.00 | 0.36 | 0.36 | 84 | 1016.0 |
| 20260506180234 | 13 | 288 | 6.4 | 12.9 | 0.00 | 0.36 | 0.36 | 85 | 1015.7 |
| 20260506175730 | 13 | 300 | 11.3 | 16.1 | 0.00 | 0.36 | 0.36 | 84 | 1016.0 |
| 20260506175227 | 13 | 186 | 1.6 | 11.3 | 0.00 | 0.36 | 0.36 | 85 | 1016.0 |
| 20260506174725 | 13 | 173 | 3.2 | 9.7 | 0.00 | 0.36 | 0.36 | 86 | 1016.0 |
| 20260506174221 | 13 | 74 | 8.0 | 9.7 | 0.00 | 0.36 | 0.36 | 86 | 1016.0 |
| 20260506173719 | 12 | 37 | 6.4 | 11.3 | 0.00 | 0.36 | 0.36 | 87 | 1016.4 |
| 20260506173216 | 12 | 171 | 4.8 | 12.9 | 0.00 | 0.36 | 0.36 | 88 | 1016.4 |
| 20260506172713 | 12 | 184 | 6.4 | 11.3 | 0.00 | 0.36 | 0.36 | 89 | 1016.7 |
| 20260506172209 | 12 | 269 | 4.8 | 8.0 | 0.00 | 0.36 | 0.36 | 89 | 1016.7 |
| 20260506171707 | 12 | 2 | 6.4 | 14.5 | 0.00 | 0.36 | 0.36 | 90 | 1016.7 |
| 20260506171204 | 12 | 260 | 3.2 | 9.7 | 0.00 | 0.36 | 0.36 | 91 | 1016.4 |
| 20260506170702 | 12 | 356 | 8.0 | 16.1 | 0.00 | 0.36 | 0.36 | 91 | 1016.4 |
| 20260506170158 | 12 | 260 | 1.6 | 4.8 | 0.00 | 0.36 | 0.36 | 92 | 1016.4 |
| 20260506165657 | 11 | 213 | 6.4 | 12.9 | 0.00 | 0.36 | 0.36 | 92 | 1016.4 |
| 20260506165153 | 11 | 136 | 3.2 | 8.0 | 0.00 | 0.36 | 0.36 | 93 | 1016.4 |
| 20260506164650 | 11 | 198 | 1.6 | 11.3 | 0.00 | 0.36 | 0.36 | 94 | 1016.4 |
| 20260506164148 | 11 | 16 | 4.8 | 11.3 | 0.00 | 0.36 | 0.36 | 94 | 1016.4 |
| 20260506163644 | 11 | 77 | 4.8 | 9.7 | 0.00 | 0.36 | 0.36 | 95 | 1016.7 |
| 20260506163139 | 11 | 95 | 3.2 | 4.8 | 0.00 | 0.36 | 0.36 | 95 | 1016.7 |
| 20260506162635 | 11 | 49 | 6.4 | 11.3 | 0.00 | 0.36 | 0.36 | 95 | 1016.7 |
| 20260506162133 | 11 | 133 | 1.6 | 9.7 | 0.00 | 0.36 | 0.36 | 96 | 1016.7 |
| 20260506161630 | 11 | 50 | 4.8 | 8.0 | 0.00 | 0.36 | 0.36 | 96 | 1016.7 |
| 20260506161127 | 11 | 170 | 1.6 | 4.8 | 0.00 | 0.36 | 0.36 | 96 | 1016.4 |
| 20260506160624 | 11 | 79 | 3.2 | 12.9 | 0.00 | 0.36 | 0.36 | 96 | 1016.7 |
| 20260506160121 | 11 | 329 | 4.8 | 12.9 | 0.00 | 0.36 | 0.36 | 96 | 1016.4 |
| 20260506155620 | 11 | 7 | 4.8 | 11.3 | 0.00 | 0.36 | 0.36 | 97 | 1016.4 |
| 20260506155116 | 11 | 47 | 6.4 | 14.5 | 0.00 | 0.36 | 0.36 | 97 | 1015.7 |
| 20260506153218 | 11 | 314 | 12.9 | 22.5 | 0.00 | 0.36 | 0.36 | 96 | 1015.7 |
| 20260506152715 | 11 | 305 | 4.8 | 9.7 | 0.13 | 0.36 | 0.36 | 96 | 1016.4 |
| 20260506152212 | 11 | 91 | 6.4 | 14.5 | 0.13 | 0.36 | 0.36 | 96 | 1016.0 |
| 20260506151712 | 11 | 255 | 3.2 | 8.0 | 0.00 | 0.33 | 0.33 | 96 | 1016.4 |
| 20260506151208 | 11 | 56 | 3.2 | 8.0 | 0.00 | 0.33 | 0.33 | 96 | 1016.7 |
| 20260506150704 | 11 | 77 | 1.6 | 8.0 | 0.00 | 0.33 | 0.33 | 95 | 1017.4 |
| 20260506150201 | 11 | 189 | 1.6 | 8.0 | 0.00 | 0.33 | 0.33 | 95 | 1017.7 |
| 20260506145658 | 11 | 331 | 4.8 | 9.7 | 0.30 | 0.33 | 0.33 | 94 | 1017.7 |
| 20260506145154 | 11 | 112 | 3.2 | 8.0 | 1.80 | 0.30 | 0.30 | 93 | 1016.4 |
| 20260506144652 | 11 | 347 | 3.2 | 11.3 | 1.68 | 0.28 | 0.28 | 91 | 1017.7 |
| 20260506144149 | 11 | 174 | 1.6 | 4.8 | 0.00 | 0.00 | 0.00 | 90 | 1018.4 |
| 20260506143646 | 11 | 251 | 4.8 | 4.8 | 0.00 | 0.00 | 0.00 | 90 | 1018.1 |
| 20260506143144 | 11 | 336 | 8.0 | 9.7 | 0.00 | 0.00 | 0.00 | 90 | 1017.7 |
| 20260506142643 | 11 | 239 | 3.2 | 8.0 | 0.00 | 0.00 | 0.00 | 89 | 1017.7 |
| 20260506142140 | 11 | 275 | 1.6 | 9.7 | 0.00 | 0.00 | 0.00 | 89 | 1018.1 |
| 20260506141637 | 11 | 35 | 11.3 | 12.9 | 0.00 | 0.00 | 0.00 | 89 | 1016.0 |
| 20260506141136 | 11 | 314 | 4.8 | 8.0 | 0.00 | 0.00 | 0.00 | 89 | 1015.7 |
| 20260506140633 | 11 | 136 | 1.6 | 9.7 | 0.00 | 0.00 | 0.00 | 89 | 1016.0 |
| 20260506140130 | 11 | 3 | 6.4 | 9.7 | 0.00 | 0.00 | 0.00 | 89 | 1016.4 |
| 20260506135627 | 11 | 239 | 4.8 | 12.9 | 0.00 | 0.00 | 0.00 | 88 | 1016.7 |
| 20260506135123 | 11 | 350 | 8.0 | 11.3 | 0.00 | 0.00 | 0.00 | 88 | 1017.0 |
| 20260506134620 | 11 | 23 | 4.8 | 16.1 | 0.00 | 0.00 | 0.00 | 88 | 1016.7 |
| 20260506134115 | 11 | 250 | 3.2 | 9.7 | 0.00 | 0.00 | 0.00 | 88 | 1016.4 |
| 20260506133613 | 11 | 340 | 4.8 | 12.9 | 0.00 | 0.00 | 0.00 | 88 | 1016.0 |
| 20260506133110 | 11 | 184 | 1.6 | 4.8 | 0.00 | 0.00 | 0.00 | 87 | 1016.0 |
| 20260506132607 | 11 | 267 | 6.4 | 12.9 | 0.00 | 0.00 | 0.00 | 87 | 1016.4 |
| 20260506132104 | 11 | 201 | 3.2 | 17.7 | 0.00 | 0.00 | 0.00 | 87 | 1015.7 |
| 20260506131601 | 11 | 206 | 1.6 | 8.0 | 0.00 | 0.00 | 0.00 | 86 | 1015.7 |
| 20260506131057 | 12 | 297 | 3.2 | 14.5 | 0.00 | 0.00 | 0.00 | 86 | 1015.7 |
| 20260506130555 | 11 | 203 | 1.6 | 12.9 | 0.00 | 0.00 | 0.00 | 86 | 1015.7 |
| 20260506130052 | 12 | 212 | 6.4 | 16.1 | 0.00 | 0.00 | 0.00 | 86 | 1015.7 |
| 20260506125550 | 12 | 56 | 9.7 | 17.7 | 0.00 | 0.00 | 0.00 | 85 | 1015.0 |
| 20260506125048 | 12 | 280 | 8.0 | 11.3 | 0.00 | 0.00 | 0.00 | 85 | 1015.0 |
| 20260506124545 | 12 | 37 | 8.0 | 14.5 | 0.00 | 0.00 | 0.00 | 84 | 1015.3 |
| 20260506124043 | 12 | 61 | 8.0 | 14.5 | 0.00 | 0.00 | 0.00 | 83 | 1015.3 |
| 20260506123540 | 12 | 254 | 4.8 | 22.5 | 0.00 | 0.00 | 0.00 | 83 | 1015.0 |
| 20260506123039 | 12 | 201 | 9.7 | 24.1 | 0.00 | 0.00 | 0.00 | 82 | 1015.0 |
| 20260506122535 | 12 | 195 | 4.8 | 8.0 | 0.00 | 0.00 | 0.00 | 82 | 1015.0 |
| 20260506122033 | 12 | 119 | 4.8 | 12.9 | 0.00 | 0.00 | 0.00 | 81 | 1015.0 |
| 20260506121531 | 12 | 49 | 4.8 | 9.7 | 0.00 | 0.00 | 0.00 | 81 | 1014.7 |
| 20260506121026 | 12 | 43 | 3.2 | 9.7 | 0.00 | 0.00 | 0.00 | 81 | 1014.7 |
| 20260506120525 | 12 | 17 | 8.0 | 12.9 | 0.00 | 0.00 | 0.00 | 81 | 1014.2 |
| 20260506120022 | 12 | 12 | 8.0 | 11.3 | 0.00 | 0.00 | 0.00 | 81 | 1014.7 |
| 20260506115520 | 13 | 184 | 11.3 | 20.9 | 0.00 | 0.00 | 0.00 | 81 | 1014.7 |
| 20260506115018 | 13 | 291 | 11.3 | 14.5 | 0.00 | 0.00 | 0.00 | 81 | 1015.0 |
| 20260506114515 | 13 | 38 | 3.2 | 22.5 | 0.00 | 0.00 | 0.00 | 81 | 1014.7 |
| 20260506114014 | 13 | 103 | 8.0 | 22.5 | 0.00 | 0.00 | 0.00 | 81 | 1014.7 |
| 20260506113511 | 13 | 44 | 4.8 | 14.5 | 0.00 | 0.00 | 0.00 | 81 | 1014.7 |
| 20260506113008 | 13 | 102 | 1.6 | 9.7 | 0.00 | 0.00 | 0.00 | 80 | 1014.2 |
| 20260506112504 | 13 | 34 | 8.0 | 24.1 | 0.00 | 0.00 | 0.00 | 80 | 1014.2 |
| 20260506112002 | 13 | 320 | 12.9 | 17.7 | 0.00 | 0.00 | 0.00 | 80 | 1013.9 |
| 20260506111500 | 13 | 207 | 8.0 | 16.1 | 0.00 | 0.00 | 0.00 | 80 | 1013.9 |
| 20260506110956 | 13 | 198 | 3.2 | 9.7 | 0.00 | 0.00 | 0.00 | 82 | 1013.9 |
| 20260506110454 | 13 | 88 | 4.8 | 20.9 | 0.00 | 0.00 | 0.00 | 82 | 1013.9 |
| 20260506105951 | 13 | 88 | 6.4 | 14.5 | 0.00 | 0.00 | 0.00 | 81 | 1013.6 |
| 20260506105447 | 13 | 289 | 3.2 | 14.5 | 0.00 | 0.00 | 0.00 | 82 | 1013.9 |
| 20260506104945 | 13 | 234 | 3.2 | 9.7 | 0.00 | 0.00 | 0.00 | 82 | 1013.6 |
| 20260506104443 | 13 | 31 | 8.0 | 12.9 | 0.00 | 0.00 | 0.00 | 81 | 1013.2 |
| 20260506103941 | 13 | 321 | 4.8 | 9.7 | 0.00 | 0.00 | 0.00 | 81 | 1013.2 |
| 20260506103437 | 13 | 6 | 4.8 | 11.3 | 0.00 | 0.00 | 0.00 | 80 | 1013.6 |
| 20260506102934 | 13 | 234 | 3.2 | 11.3 | 0.00 | 0.00 | 0.00 | 81 | 1013.2 |
| 20260506102433 | 13 | 81 | 3.2 | 9.7 | 0.00 | 0.00 | 0.00 | 81 | 1013.2 |
| 20260506101929 | 13 | 189 | 4.8 | 16.1 | 0.00 | 0.00 | 0.00 | 81 | 1012.9 |
| 20260506101426 | 13 | 208 | 3.2 | 24.1 | 0.00 | 0.00 | 0.00 | 81 | 1012.9 |
| 20260506100923 | 13 | 117 | 6.4 | 14.5 | 0.00 | 0.00 | 0.00 | 81 | 1012.9 |
| 20260506100421 | 13 | 22 | 11.3 | 12.9 | 0.00 | 0.00 | 0.00 | 81 | 1012.9 |
| 20260506095919 | 13 | 193 | 3.2 | 8.0 | 0.00 | 0.00 | 0.00 | 82 | 1012.9 |
| 20260506095417 | 14 | 202 | 4.8 | 12.9 | 0.00 | 0.00 | 0.00 | 82 | 1012.5 |
| 20260506094913 | 13 | 355 | 3.2 | 11.3 | 0.00 | 0.00 | 0.00 | 82 | 1012.5 |
| 20260506094412 | 14 | 57 | 9.7 | 20.9 | 0.00 | 0.00 | 0.00 | 82 | 1012.5 |
| 20260506093909 | 14 | 189 | 9.7 | 22.5 | 0.00 | 0.00 | 0.00 | 82 | 1012.5 |
| 20260506093407 | 14 | 39 | 9.7 | 14.5 | 0.00 | 0.00 | 0.00 | 83 | 1012.5 |
| 20260506092904 | 14 | 210 | 1.6 | 4.8 | 0.00 | 0.00 | 0.00 | 83 | 1012.5 |
| 20260506092402 | 14 | 303 | 4.8 | 14.5 | 0.00 | 0.00 | 0.00 | 82 | 1012.2 |
| 20260506091858 | 14 | 276 | 14.5 | 17.7 | 0.00 | 0.00 | 0.00 | 82 | 1012.5 |
| 20260506091357 | 14 | 75 | 4.8 | 14.5 | 0.00 | 0.00 | 0.00 | 82 | 1012.2 |
| 20260506090853 | 14 | 309 | 11.3 | 16.1 | 0.00 | 0.00 | 0.00 | 82 | 1012.2 |
| 20260506090351 | 14 | 248 | 6.4 | 9.7 | 0.00 | 0.00 | 0.00 | 82 | 1012.2 |
| 20260506085848 | 14 | 162 | 6.4 | 14.5 | 0.00 | 0.00 | 0.00 | 83 | 1012.2 |
| 20260506085344 | 14 | 29 | 6.4 | 16.1 | 0.00 | 0.00 | 0.00 | 83 | 1012.2 |
| 20260506084841 | 15 | 330 | 4.8 | 20.9 | 0.00 | 0.00 | 0.00 | 83 | 1012.2 |
| 20260506084338 | 15 | 176 | 4.8 | 11.3 | 0.00 | 0.00 | 0.00 | 83 | 1012.2 |
| 20260506083834 | 15 | 243 | 6.4 | 12.9 | 0.00 | 0.00 | 0.00 | 83 | 1012.2 |
| 20260506083331 | 15 | 193 | 3.2 | 11.3 | 0.00 | 0.00 | 0.00 | 83 | 1012.2 |
| 20260506082829 | 15 | 266 | 6.4 | 14.5 | 0.00 | 0.00 | 0.00 | 83 | 1011.9 |
| 20260506082325 | 15 | 11 | 4.8 | 12.9 | 0.00 | 0.00 | 0.00 | 83 | 1011.9 |
| 20260506081821 | 15 | 125 | 8.0 | 12.9 | 0.00 | 0.00 | 0.00 | 83 | 1012.2 |
| 20260506081320 | 15 | 189 | 6.4 | 12.9 | 0.00 | 0.00 | 0.00 | 84 | 1011.9 |
| 20260506080817 | 15 | 313 | 9.7 | 22.5 | 0.00 | 0.00 | 0.00 | 84 | 1012.2 |
| 20260506080313 | 15 | 265 | 4.8 | 8.0 | 0.00 | 0.00 | 0.00 | 84 | 1012.2 |
| 20260506073257 | 15 | 283 | 3.2 | 8.0 | 0.00 | 0.00 | 0.00 | 84 | 1011.9 |
| 20260506072754 | 15 | 232 | 1.6 | 3.2 | 0.00 | 0.00 | 0.00 | 84 | 1011.5 |
| 20260506072252 | 15 | 178 | 1.6 | 4.8 | 0.00 | 0.00 | 0.00 | 84 | 1011.5 |
| 20260506071749 | 15 | 182 | 1.6 | 4.8 | 0.00 | 0.00 | 0.00 | 84 | 1011.5 |
| 20260506071247 | 15 | 122 | 4.8 | 4.8 | 0.00 | 0.00 | 0.00 | 84 | 1011.5 |
| 20260506070744 | 15 | 64 | 3.2 | 4.8 | 0.00 | 0.00 | 0.00 | 84 | 1011.5 |
| 20260506070241 | 15 | 102 | 4.8 | 11.3 | 0.00 | 0.00 | 0.00 | 84 | 1011.5 |
| 20260506062218 | 16 | 252 | 3.2 | 9.7 | 0.00 | 0.00 | 0.00 | 84 | 1011.2 |
| 20260506061714 | 16 | 56 | 3.2 | 9.7 | 0.00 | 0.00 | 0.00 | 84 | 1011.5 |
| 20260506061211 | 16 | 308 | 3.2 | 4.8 | 0.00 | 0.00 | 0.00 | 83 | 1011.5 |
| 20260506060710 | 16 | 80 | 3.2 | 4.8 | 0.00 | 0.00 | 0.00 | 83 | 1011.5 |
| 20260506060206 | 16 | 111 | 1.6 | 12.9 | 0.00 | 0.00 | 0.00 | 83 | 1011.5 |
| 20260506051138 | 17 | 280 | 3.2 | 11.3 | 0.00 | 0.00 | 0.00 | 81 | 1011.5 |
| 20260506050637 | 17 | 317 | 6.4 | 12.9 | 0.00 | 0.00 | 0.00 | 81 | 1011.5 |
| 20260506050133 | 17 | 31 | 6.4 | 11.3 | 0.00 | 0.00 | 0.00 | 81 | 1011.9 |
| 20260506045127 | 17 | 17 | 6.4 | 12.9 | 0.00 | 0.00 | 0.00 | 81 | 1011.9 |
| 20260506044625 | 17 | 29 | 3.2 | 4.8 | 0.00 | 0.00 | 0.00 | 81 | 1011.9 |
| 20260506044121 | 17 | 2 | 6.4 | 9.7 | 0.00 | 0.00 | 0.00 | 81 | 1011.5 |
| 20260506043619 | 18 | 39 | 3.2 | 11.3 | 0.00 | 0.00 | 0.00 | 81 | 1011.5 |
| 20260506043117 | 18 | 159 | 4.8 | 11.3 | 0.00 | 0.00 | 0.00 | 81 | 1011.2 |
| 20260506042615 | 18 | 279 | 1.6 | 9.7 | 0.00 | 0.00 | 0.00 | 81 | 1011.2 |
| 20260506042113 | 18 | 28 | 6.4 | 11.3 | 0.00 | 0.00 | 0.00 | 80 | 1011.5 |
| 20260506041612 | 18 | 6 | 6.4 | 12.9 | 0.00 | 0.00 | 0.00 | 80 | 1011.5 |
| 20260506041108 | 18 | 237 | 3.2 | 9.7 | 0.00 | 0.00 | 0.00 | 79 | 1011.5 |
| 20260506040606 | 18 | 67 | 6.4 | 16.1 | 0.00 | 0.00 | 0.00 | 79 | 1011.5 |
| 20260506035559 | 19 | 66 | 3.2 | 8.0 | 0.00 | 0.00 | 0.00 | 78 | 1011.2 |
| 20260506035055 | 19 | 21 | 4.8 | 11.3 | 0.00 | 0.00 | 0.00 | 78 | 1011.2 |
| 20260506034553 | 19 | 47 | 8.0 | 12.9 | 0.00 | 0.00 | 0.00 | 78 | 1011.2 |
| 20260506034050 | 19 | 39 | 0.0 | 4.8 | 0.00 | 0.00 | 0.00 | 78 | 1010.8 |
| 20260506033547 | 19 | 157 | 3.2 | 9.7 | 0.00 | 0.00 | 0.00 | 77 | 1010.5 |
| 20260506033044 | 20 | 16 | 4.8 | 8.0 | 0.00 | 0.00 | 0.00 | 77 | 1010.8 |
| 20260506032541 | 20 | 47 | 4.8 | 9.7 | 0.00 | 0.00 | 0.00 | 76 | 1010.5 |
| 20260506032038 | 20 | 29 | 6.4 | 14.5 | 0.00 | 0.00 | 0.00 | 76 | 1010.5 |
| 20260506031536 | 20 | 257 | 4.8 | 9.7 | 0.00 | 0.00 | 0.00 | 76 | 1010.2 |
| 20260506031032 | 20 | 251 | 1.6 | 12.9 | 0.00 | 0.00 | 0.00 | 76 | 1010.5 |
| 20260506030531 | 20 | 135 | 4.8 | 9.7 | 0.00 | 0.00 | 0.00 | 76 | 1010.2 |
| 20260506030028 | 20 | 11 | 4.8 | 9.7 | 0.00 | 0.00 | 0.00 | 76 | 1009.8 |
| 20260506025525 | 20 | 337 | 4.8 | 11.3 | 0.00 | 0.00 | 0.00 | 75 | 1010.2 |
| 20260506025020 | 20 | 91 | 6.4 | 9.7 | 0.00 | 0.00 | 0.00 | 75 | 1009.8 |
| 20260506024518 | 20 | 207 | 1.6 | 11.3 | 0.00 | 0.00 | 0.00 | 75 | 1009.8 |
| 20260506024014 | 20 | 201 | 1.6 | 9.7 | 0.00 | 0.00 | 0.00 | 75 | 1009.8 |
| 20260506023510 | 20 | 354 | 4.8 | 8.0 | 0.00 | 0.00 | 0.00 | 75 | 1009.8 |
| 20260506023008 | 20 | 50 | 4.8 | 11.3 | 0.00 | 0.00 | 0.00 | 74 | 1009.4 |
| 20260506022505 | 21 | 32 | 6.4 | 12.9 | 0.00 | 0.00 | 0.00 | 74 | 1009.8 |
| 20260506022002 | 21 | 77 | 8.0 | 14.5 | 0.00 | 0.00 | 0.00 | 75 | 1009.4 |
| 20260506021500 | 21 | 140 | 4.8 | 11.3 | 0.00 | 0.00 | 0.00 | 75 | 1009.4 |
| 20260506020957 | 21 | 84 | 6.4 | 12.9 | 0.00 | 0.00 | 0.00 | 75 | 1009.4 |
| 20260506020454 | 21 | 65 | 3.2 | 11.3 | 0.00 | 0.00 | 0.00 | 75 | 1009.0 |
| 20260506015951 | 21 | 71 | 6.4 | 9.7 | 0.00 | 0.00 | 0.00 | 74 | 1008.7 |
| 20260506015449 | 21 | 40 | 4.8 | 11.3 | 0.00 | 0.00 | 0.00 | 74 | 1008.7 |
| 20260506014945 | 22 | 163 | 6.4 | 9.7 | 0.00 | 0.00 | 0.00 | 74 | 1008.4 |
| 20260506014442 | 22 | 160 | 1.6 | 8.0 | 0.00 | 0.00 | 0.00 | 73 | 1008.4 |
| 20260506013939 | 22 | 160 | 3.2 | 9.7 | 0.00 | 0.00 | 0.00 | 72 | 1008.4 |
| 20260506013437 | 22 | 22 | 9.7 | 12.9 | 0.00 | 0.00 | 0.00 | 72 | 1008.0 |
| 20260506012933 | 22 | 150 | 1.6 | 9.7 | 0.00 | 0.00 | 0.00 | 72 | 1008.0 |
| 20260506012429 | 22 | 178 | 4.8 | 8.0 | 0.00 | 0.00 | 0.00 | 73 | 1008.0 |
| 20260506011926 | 22 | 220 | 1.6 | 9.7 | 0.00 | 0.00 | 0.00 | 72 | 1008.0 |
| 20260506011424 | 22 | 193 | 0.0 | 4.8 | 0.00 | 0.00 | 0.00 | 71 | 1007.7 |
| 20260506010920 | 22 | 312 | 8.0 | 12.9 | 0.00 | 0.00 | 0.00 | 71 | 1007.4 |
| 20260506010420 | 23 | 302 | 4.8 | 9.7 | 0.00 | 0.00 | 0.00 | 71 | 1007.7 |
| 20260506005915 | 23 | 14 | 4.8 | 8.0 | 0.00 | 0.00 | 0.00 | 71 | 1007.7 |
| 20260506005413 | 23 | 300 | 4.8 | 9.7 | 0.00 | 0.00 | 0.00 | 71 | 1007.7 |
| 20260506004908 | 23 | 51 | 6.4 | 9.7 | 0.00 | 0.00 | 0.00 | 71 | 1007.4 |
| 20260506004407 | 23 | 48 | 9.7 | 16.1 | 0.00 | 0.00 | 0.00 | 70 | 1007.4 |
| 20260506003902 | 23 | 262 | 3.2 | 14.5 | 0.00 | 0.00 | 0.00 | 70 | 1007.4 |
| 20260506003358 | 23 | 293 | 8.0 | 11.3 | 0.00 | 0.00 | 0.00 | 69 | 1007.0 |
| 20260506002855 | 24 | 19 | 3.2 | 8.0 | 0.00 | 0.00 | 0.00 | 68 | 1007.0 |
| 20260506002351 | 24 | 255 | 3.2 | 9.7 | 0.00 | 0.00 | 0.00 | 66 | 1007.4 |
| 20260506001847 | 24 | 53 | 1.6 | 8.0 | 0.00 | 0.00 | 0.00 | 66 | 1007.0 |
| 20260506001344 | 25 | 45 | 3.2 | 8.0 | 0.00 | 0.00 | 0.00 | 66 | 1006.7 |
| 20260506000841 | 25 | 159 | 1.6 | 4.8 | 0.00 | 0.00 | 0.00 | 66 | 1007.0 |
| 20260506000340 | 25 | 49 | 3.2 | 8.0 | 0.00 | 0.00 | 0.00 | 65 | 1007.0 |
| 20260505235835 | 25 | 147 | 4.8 | 14.5 | 0.00 | 0.00 | 0.00 | 65 | 1007.0 |
| 20260505235333 | 25 | 125 | 9.7 | 14.5 | 0.00 | 0.00 | 0.00 | 66 | 1007.0 |
| 20260505234830 | 25 | 184 | 3.2 | 9.7 | 0.00 | 0.00 | 0.00 | 66 | 1007.0 |
| 20260505234328 | 26 | 54 | 4.8 | 14.5 | 0.00 | 0.00 | 0.00 | 65 | 1006.7 |
| 20260505233824 | 26 | 139 | 6.4 | 14.5 | 0.00 | 0.00 | 0.00 | 65 | 1006.7 |
| 20260505233322 | 26 | 290 | 3.2 | 14.5 | 0.00 | 0.00 | 0.00 | 66 | 1006.3 |
| 20260505232819 | 26 | 192 | 4.8 | 16.1 | 0.00 | 0.00 | 0.00 | 65 | 1006.3 |
| 20260505232317 | 26 | 315 | 9.7 | 14.5 | 0.00 | 0.00 | 0.00 | 65 | 1006.7 |
| 20260505231813 | 27 | 327 | 1.6 | 9.7 | 0.00 | 0.00 | 0.00 | 66 | 1006.3 |
| 20260505231312 | 27 | 215 | 3.2 | 12.9 | 0.00 | 0.00 | 0.00 | 66 | 1006.3 |
| 20260505230810 | 27 | 19 | 9.7 | 12.9 | 0.00 | 0.00 | 0.00 | 65 | 1006.3 |
| 20260505230306 | 28 | 336 | 9.7 | 17.7 | 0.00 | 0.00 | 0.00 | 63 | 1006.0 |
| 20260505225803 | 28 | 304 | 4.8 | 11.3 | 0.00 | 0.00 | 0.00 | 60 | 1005.7 |
| 20260505225300 | 28 | 173 | 4.8 | 8.0 | 0.00 | 0.00 | 0.00 | 57 | 1006.0 |
| 20260505224755 | 28 | 350 | 1.6 | 11.3 | 0.00 | 0.00 | 0.00 | 56 | 1006.0 |
| 20260505224253 | 28 | 294 | 11.3 | 16.1 | 0.00 | 0.00 | 0.00 | 54 | 1006.0 |
| 20260505223750 | 30 | 183 | 8.0 | 14.5 | 0.00 | 0.00 | 0.00 | 54 | 1005.7 |
| 20260505223247 | 30 | 136 | 4.8 | 9.7 | 0.00 | 0.00 | 0.00 | 53 | 1005.7 |
| 20260505222743 | 30 | 118 | 3.2 | 11.3 | 0.00 | 0.00 | 0.00 | 53 | 1005.7 |
| 20260505222239 | 30 | 341 | 9.7 | 12.9 | 0.00 | 0.00 | 0.00 | 52 | 1005.7 |
| 20260505221736 | 31 | 267 | 8.0 | 12.9 | 0.00 | 0.00 | 0.00 | 52 | 1005.7 |
| 20260505221233 | 33 | 171 | 1.6 | 1.6 | 0.00 | 0.00 | 0.00 | 50 | 1005.3 |
| 20260505220729 | 33 | 251 | 4.8 | 4.8 | 0.00 | 0.00 | 0.00 | 51 | 1005.3 |
| 20260505220227 | 32 | 202 | 1.6 | 3.2 | 0.00 | 0.00 | 0.00 | 52 | 1005.0 |
| 20260505215725 | 32 | 216 | 1.6 | 4.8 | 0.00 | 0.00 | 0.00 | 52 | 1005.3 |
| 20260505215223 | 32 | 292 | 4.8 | 4.8 | 0.00 | 0.00 | 0.00 | 52 | 1005.3 |
| 20260505214720 | 32 | 202 | 1.6 | 4.8 | 0.00 | 0.00 | 0.00 | 53 | 1005.3 |
| 20260505214218 | 32 | 175 | 3.2 | 3.2 | 0.00 | 0.00 | 0.00 | 52 | 1005.7 |
| 20260505213715 | 32 | 240 | 3.2 | 4.8 | 0.00 | 0.00 | 0.00 | 51 | 1005.3 |
| 20260505213212 | 32 | 248 | 3.2 | 4.8 | 0.00 | 0.00 | 0.00 | 50 | 1005.7 |
| 20260505212708 | 32 | 300 | 3.2 | 9.7 | 0.00 | 0.00 | 0.00 | 52 | 1005.7 |
| 20260505212205 | 32 | 311 | 6.4 | 9.7 | 0.00 | 0.00 | 0.00 | 50 | 1005.7 |
| 20260505211702 | 32 | 244 | 1.6 | 8.0 | 0.00 | 0.00 | 0.00 | 50 | 1005.7 |
| 20260505211159 | 32 | 190 | 1.6 | 8.0 | 0.00 | 0.00 | 0.00 | 51 | 1005.7 |
| 20260505210656 | 32 | 354 | 6.4 | 11.3 | 0.00 | 0.00 | 0.00 | 48 | 1005.7 |
| 20260505210153 | 33 | 298 | 4.8 | 8.0 | 0.00 | 0.00 | 0.00 | 49 | 1005.7 |
| 20260505205650 | 33 | 299 | 4.8 | 8.0 | 0.00 | 0.00 | 0.00 | 49 | 1006.0 |
| 20260505205148 | 33 | 284 | 6.4 | 9.7 | 0.00 | 0.00 | 0.00 | 49 | 1006.0 |
| 20260505204644 | 33 | 184 | 4.8 | 8.0 | 0.00 | 0.00 | 0.00 | 52 | 1006.0 |
| 20260505204143 | 33 | 204 | 3.2 | 8.0 | 0.00 | 0.00 | 0.00 | 52 | 1006.0 |
| 20260505203639 | 33 | 234 | 1.6 | 4.8 | 0.00 | 0.00 | 0.00 | 51 | 1006.3 |
| 20260505203136 | 33 | 241 | 3.2 | 4.8 | 0.00 | 0.00 | 0.00 | 51 | 1006.0 |
| 20260505202632 | 33 | 215 | 3.2 | 9.7 | 0.00 | 0.00 | 0.00 | 53 | 1006.3 |
| 20260505202128 | 32 | 134 | 3.2 | 4.8 | 0.00 | 0.00 | 0.00 | 51 | 1006.0 |
| 20260505201625 | 33 | 246 | 8.0 | 12.9 | 0.00 | 0.00 | 0.00 | 51 | 1006.3 |
| 20260505201123 | 33 | 209 | 3.2 | 3.2 | 0.00 | 0.00 | 0.00 | 54 | 1006.7 |
| 20260505200620 | 32 | 204 | 3.2 | 9.7 | 0.00 | 0.00 | 0.00 | 53 | 1006.3 |
| 20260505200117 | 32 | 212 | 4.8 | 8.0 | 0.00 | 0.00 | 0.00 | 52 | 1006.3 |
| 20260505195608 | 32 | 200 | 6.4 | 11.3 | 0.00 | 0.00 | 0.00 | 52 | 1006.3 |
| 20260505195105 | 32 | 202 | 1.6 | 8.0 | 0.00 | 0.00 | 0.00 | 55 | 1006.3 |
| 20260505194556 | 32 | 233 | 3.2 | 9.7 | 0.00 | 0.00 | 0.00 | 55 | 1006.7 |
| 20260505194052 | 32 | 185 | 6.4 | 11.3 | 0.00 | 0.00 | 0.00 | 54 | 1006.7 |
| 20260505193549 | 32 | 197 | 1.6 | 3.2 | 0.00 | 0.00 | 0.00 | 56 | 1006.7 |
| 20260505193046 | 32 | 197 | 4.8 | 11.3 | 0.00 | 0.00 | 0.00 | 56 | 1006.7 |
| 20260505192545 | 32 | 251 | 3.2 | 14.5 | 0.00 | 0.00 | 0.00 | 56 | 1006.7 |
| 20260505192042 | 32 | 201 | 3.2 | 4.8 | 0.00 | 0.00 | 0.00 | 56 | 1006.7 |